Terminal Aerodrome Forecast
Issued by NWS Grand Forks, ND

Home | Current Version | Previous Version | Text Only | Print | Product List | Glossary Off
Versions: 1 2 3 4 5 6 7 8 9 10 11 12 13 14

000
FTUS43 KFGF 212300
TAFFAR
TAF
KFAR 212322Z 2200/2224 16010KT P6SM BKN040
      TEMPO 2202/2204 VRB25G45KT 3SM TSRA BKN030CB
     FM220600 32014KT P6SM BKN080
     FM221400 35013KT P6SM SKC=

USA.gov is the U.S. government's official web portal to all federal, state and local government web resources and services.